| time (UTC) | temp C | wind direction | speed KPH | gust KPH | rain 1hr cm | rain 24hr cm | rain mn cm | humidity % | barometer mb |
| 20260507084138 | 23 | 312 | 1.6 | 3.2 | 0.00 | 0.00 | 0.00 | 36 | 1012.4 |
| 20260507083651 | 23 | 310 | 3.2 | 4.8 | 0.00 | 0.00 | 0.00 | 37 | 1012.5 |
| 20260507083153 | 22 | 280 | 4.8 | 8.0 | 0.00 | 0.00 | 0.00 | 39 | 1012.6 |
| 20260507082724 | 22 | 283 | 4.8 | 8.0 | 0.00 | 0.00 | 0.00 | 41 | 1012.6 |
| 20260507082141 | 23 | 324 | 8.0 | 12.9 | 0.00 | 0.00 | 0.00 | 43 | 1012.6 |
| 20260507081601 | 23 | 341 | 14.5 | 16.1 | 0.00 | 0.00 | 0.00 | 43 | 1012.7 |
| 20260507081155 | 23 | 341 | 12.9 | 16.1 | 0.00 | 0.00 | 0.00 | 42 | 1012.8 |
| 20260507080653 | 23 | 334 | 8.0 | 11.3 | 0.00 | 0.00 | 0.00 | 40 | 1012.9 |
| 20260507080112 | 23 | 328 | 6.4 | 9.7 | 0.00 | 0.00 | 0.00 | 41 | 1012.9 |
| 20260507075648 | 23 | 313 | 4.8 | 8.0 | 0.00 | 0.00 | 0.00 | 43 | 1013.0 |
| 20260507075212 | 23 | 305 | 3.2 | 8.0 | 0.00 | 0.00 | 0.00 | 44 | 1013.0 |
| 20260507074616 | 23 | 336 | 3.2 | 6.4 | 0.00 | 0.00 | 0.00 | 42 | 1013.0 |
| 20260507074226 | 23 | 342 | 3.2 | 6.4 | 0.00 | 0.00 | 0.00 | 40 | 1013.1 |
| 20260507073805 | 23 | 333 | 6.4 | 8.0 | 0.00 | 0.00 | 0.00 | 38 | 1013.1 |
| 20260507073244 | 23 | 333 | 4.8 | 8.0 | 0.00 | 0.00 | 0.00 | 40 | 1013.1 |
| 20260507072835 | 23 | 348 | 1.6 | 4.8 | 0.00 | 0.00 | 0.00 | 42 | 1013.1 |
| 20260507072453 | 23 | 353 | 1.6 | 4.8 | 0.00 | 0.00 | 0.00 | 40 | 1013.1 |
| 20260507071844 | 23 | 323 | 1.6 | 4.8 | 0.00 | 0.00 | 0.00 | 37 | 1013.1 |
| 20260507071312 | 24 | 291 | 3.2 | 4.8 | 0.00 | 0.00 | 0.00 | 36 | 1013.1 |
| 20260507070701 | 25 | 291 | 4.8 | 6.4 | 0.00 | 0.00 | 0.00 | 35 | 1013.1 |
| 20260507065957 | 25 | 293 | 8.0 | 9.7 | 0.00 | 0.00 | 0.00 | 37 | 1013.0 |
| 20260507065537 | 25 | 293 | 8.0 | 9.7 | 0.00 | 0.00 | 0.00 | 37 | 1013.0 |
| 20260507065024 | 24 | 303 | 8.0 | 9.7 | 0.00 | 0.00 | 0.00 | 38 | 1013.0 |
| 20260507064458 | 24 | 335 | 11.3 | 12.9 | 0.00 | 0.00 | 0.00 | 44 | 1013.1 |
| 20260507063957 | 24 | 341 | 14.5 | 14.5 | 0.00 | 0.00 | 0.00 | 44 | 1013.1 |
| 20260507063501 | 23 | 342 | 14.5 | 14.5 | 0.00 | 0.00 | 0.00 | 47 | 1013.1 |
| 20260507062958 | 23 | 344 | 11.3 | 14.5 | 0.00 | 0.00 | 0.00 | 51 | 1013.1 |
| 20260507062541 | 23 | 344 | 11.3 | 14.5 | 0.00 | 0.00 | 0.00 | 51 | 1013.1 |
| 20260507062014 | 23 | 347 | 12.9 | 16.1 | 0.00 | 0.00 | 0.00 | 51 | 1013.1 |
| 20260507061458 | 23 | 359 | 14.5 | 16.1 | 0.00 | 0.00 | 0.00 | 52 | 1012.9 |
| 20260507061017 | 23 | 359 | 14.5 | 16.1 | 0.00 | 0.00 | 0.00 | 52 | 1012.9 |
| 20260507060531 | 22 | 354 | 11.3 | 16.1 | 0.00 | 0.00 | 0.00 | 53 | 1012.9 |
| 20260507060018 | 22 | 1 | 11.3 | 12.9 | 0.00 | 0.00 | 0.00 | 53 | 1013.0 |
| 20260507055516 | 23 | 355 | 11.3 | 12.9 | 0.00 | 0.00 | 0.00 | 52 | 1013.0 |
| 20260507055017 | 23 | 0 | 9.7 | 11.3 | 0.00 | 0.00 | 0.00 | 54 | 1013.0 |
| 20260507054458 | 24 | 341 | 8.0 | 8.0 | 0.00 | 0.00 | 0.00 | 50 | 1013.0 |
| 20260507053957 | 24 | 344 | 8.0 | 8.0 | 0.00 | 0.00 | 0.00 | 44 | 1013.0 |
| 20260507053501 | 25 | 15 | 3.2 | 6.4 | 0.00 | 0.00 | 0.00 | 37 | 1013.0 |
| 20260507052957 | 25 | 307 | 0.0 | 1.6 | 0.00 | 0.00 | 0.00 | 36 | 1013.0 |
| 20260507052530 | 25 | 307 | 0.0 | 1.6 | 0.00 | 0.00 | 0.00 | 36 | 1013.0 |
| 20260507051457 | 26 | 6 | 0.0 | 1.6 | 0.00 | 0.00 | 0.00 | 35 | 1013.0 |
| 20260507051017 | 26 | 6 | 0.0 | 1.6 | 0.00 | 0.00 | 0.00 | 35 | 1013.0 |
| 20260507050459 | 26 | 297 | 1.6 | 3.2 | 0.00 | 0.00 | 0.00 | 35 | 1012.9 |
| 20260507045959 | 26 | 316 | 1.6 | 3.2 | 0.00 | 0.00 | 0.00 | 35 | 1012.9 |
| 20260507045537 | 26 | 316 | 1.6 | 3.2 | 0.00 | 0.00 | 0.00 | 35 | 1012.9 |
| 20260507045040 | 26 | 325 | 3.2 | 3.2 | 0.00 | 0.00 | 0.00 | 35 | 1012.9 |
| 20260507044458 | 26 | 286 | 1.6 | 3.2 | 0.00 | 0.00 | 0.00 | 35 | 1012.9 |
| 20260507044018 | 26 | 313 | 1.6 | 3.2 | 0.00 | 0.00 | 0.00 | 34 | 1012.9 |
| 20260507043459 | 26 | 285 | 3.2 | 4.8 | 0.00 | 0.00 | 0.00 | 35 | 1012.9 |
| 20260507042958 | 26 | 262 | 3.2 | 4.8 | 0.00 | 0.00 | 0.00 | 35 | 1012.8 |
| 20260507042521 | 26 | 262 | 3.2 | 4.8 | 0.00 | 0.00 | 0.00 | 35 | 1012.8 |
| 20260507042022 | 26 | 247 | 3.2 | 4.8 | 0.00 | 0.00 | 0.00 | 36 | 1012.8 |
| 20260507041459 | 26 | 254 | 4.8 | 8.0 | 0.00 | 0.00 | 0.00 | 38 | 1012.7 |
| 20260507041032 | 26 | 254 | 4.8 | 8.0 | 0.00 | 0.00 | 0.00 | 38 | 1012.7 |
| 20260507040544 | 26 | 266 | 6.4 | 8.0 | 0.00 | 0.00 | 0.00 | 39 | 1012.7 |
| 20260507035957 | 26 | 242 | 8.0 | 9.7 | 0.00 | 0.00 | 0.00 | 45 | 1012.6 |
| 20260507035512 | 26 | 242 | 8.0 | 9.7 | 0.00 | 0.00 | 0.00 | 45 | 1012.6 |
| 20260507035021 | 26 | 241 | 8.0 | 9.7 | 0.00 | 0.00 | 0.00 | 45 | 1012.5 |
| 20260507034518 | 25 | 221 | 6.4 | 8.0 | 0.00 | 0.00 | 0.00 | 45 | 1012.5 |
| 20260507033959 | 25 | 214 | 6.4 | 8.0 | 0.00 | 0.00 | 0.00 | 45 | 1012.4 |
| 20260507033459 | 25 | 198 | 4.8 | 6.4 | 0.00 | 0.00 | 0.00 | 47 | 1012.3 |
| 20260507032959 | 25 | 180 | 4.8 | 6.4 | 0.00 | 0.00 | 0.00 | 47 | 1012.3 |
| 20260507032559 | 25 | 180 | 4.8 | 6.4 | 0.00 | 0.00 | 0.00 | 47 | 1012.3 |
| 20260507032038 | 25 | 166 | 4.8 | 8.0 | 0.00 | 0.00 | 0.00 | 48 | 1012.2 |
| 20260507031518 | 25 | 159 | 4.8 | 8.0 | 0.00 | 0.00 | 0.00 | 47 | 1012.1 |
| 20260507031020 | 25 | 158 | 6.4 | 8.0 | 0.00 | 0.00 | 0.00 | 48 | 1012.1 |
| 20260507030536 | 25 | 150 | 6.4 | 9.7 | 0.00 | 0.00 | 0.00 | 48 | 1012.0 |
| 20260507030032 | 25 | 148 | 8.0 | 11.3 | 0.00 | 0.00 | 0.00 | 47 | 1012.0 |
| 20260507025624 | 25 | 145 | 8.0 | 11.3 | 0.00 | 0.00 | 0.00 | 46 | 1011.9 |
| 20260507025114 | 26 | 141 | 8.0 | 12.9 | 0.00 | 0.00 | 0.00 | 46 | 1011.8 |
| 20260507024518 | 26 | 142 | 8.0 | 12.9 | 0.00 | 0.00 | 0.00 | 45 | 1011.8 |
| 20260507024017 | 26 | 141 | 9.7 | 14.5 | 0.00 | 0.00 | 0.00 | 45 | 1011.7 |
| 20260507023518 | 26 | 138 | 9.7 | 12.9 | 0.00 | 0.00 | 0.00 | 46 | 1011.6 |
| 20260507023017 | 26 | 135 | 9.7 | 14.5 | 0.00 | 0.00 | 0.00 | 47 | 1011.6 |
| 20260507022545 | 26 | 134 | 9.7 | 14.5 | 0.00 | 0.00 | 0.00 | 49 | 1011.5 |
| 20260507022018 | 26 | 131 | 9.7 | 16.1 | 0.00 | 0.00 | 0.00 | 49 | 1011.5 |
| 20260507021457 | 26 | 122 | 11.3 | 17.7 | 0.00 | 0.00 | 0.00 | 50 | 1011.5 |
| 20260507021018 | 26 | 122 | 11.3 | 17.7 | 0.00 | 0.00 | 0.00 | 50 | 1011.5 |
| 20260507020500 | 26 | 120 | 14.5 | 20.9 | 0.00 | 0.00 | 0.00 | 48 | 1011.4 |
| 20260507015957 | 26 | 122 | 11.3 | 19.3 | 0.00 | 0.00 | 0.00 | 48 | 1011.4 |
| 20260507015545 | 26 | 122 | 11.3 | 19.3 | 0.00 | 0.00 | 0.00 | 48 | 1011.4 |
| 20260507015022 | 26 | 117 | 11.3 | 17.7 | 0.00 | 0.00 | 0.00 | 47 | 1011.4 |
| 20260507014458 | 27 | 118 | 14.5 | 20.9 | 0.00 | 0.00 | 0.00 | 44 | 1011.4 |
| 20260507013958 | 27 | 118 | 16.1 | 22.5 | 0.00 | 0.00 | 0.00 | 42 | 1011.4 |
| 20260507013500 | 27 | 120 | 12.9 | 20.9 | 0.00 | 0.00 | 0.00 | 43 | 1011.4 |
| 20260507012957 | 27 | 118 | 12.9 | 20.9 | 0.00 | 0.00 | 0.00 | 42 | 1011.4 |
| 20260507012547 | 27 | 118 | 12.9 | 20.9 | 0.00 | 0.00 | 0.00 | 42 | 1011.4 |
| 20260507012035 | 27 | 116 | 16.1 | 22.5 | 0.00 | 0.00 | 0.00 | 42 | 1011.5 |
| 20260507011518 | 27 | 112 | 16.1 | 24.1 | 0.00 | 0.00 | 0.00 | 43 | 1011.5 |
| 20260507010501 | 27 | 109 | 16.1 | 20.9 | 0.00 | 0.00 | 0.00 | 44 | 1011.5 |
| 20260507005958 | 27 | 109 | 16.1 | 24.1 | 0.00 | 0.00 | 0.00 | 41 | 1011.4 |
| 20260507005523 | 27 | 109 | 16.1 | 24.1 | 0.00 | 0.00 | 0.00 | 41 | 1011.4 |
| 20260507005027 | 27 | 112 | 17.7 | 25.7 | 0.00 | 0.00 | 0.00 | 41 | 1011.5 |
| 20260507004458 | 27 | 112 | 19.3 | 27.4 | 0.00 | 0.00 | 0.00 | 42 | 1011.5 |
| 20260507003958 | 27 | 111 | 17.7 | 25.7 | 0.00 | 0.00 | 0.00 | 41 | 1011.4 |
| 20260507003500 | 27 | 111 | 19.3 | 27.4 | 0.00 | 0.00 | 0.00 | 41 | 1011.4 |
| 20260507003019 | 27 | 109 | 17.7 | 27.4 | 0.00 | 0.00 | 0.00 | 41 | 1011.4 |
| 20260507002530 | 27 | 109 | 17.7 | 27.4 | 0.00 | 0.00 | 0.00 | 41 | 1011.4 |
| 20260507002026 | 27 | 111 | 17.7 | 24.1 | 0.00 | 0.00 | 0.00 | 37 | 1011.4 |
| 20260507001501 | 27 | 105 | 17.7 | 25.7 | 0.00 | 0.00 | 0.00 | 42 | 1011.4 |
| 20260507001019 | 27 | 105 | 17.7 | 25.7 | 0.00 | 0.00 | 0.00 | 42 | 1011.4 |
| 20260507000525 | 27 | 109 | 17.7 | 25.7 | 0.00 | 0.00 | 0.00 | 41 | 1011.4 |
| 20260507000025 | 27 | 112 | 17.7 | 24.1 | 0.00 | 0.00 | 0.00 | 40 | 1011.4 |
| 20260506235624 | 27 | 108 | 17.7 | 25.7 | 0.00 | 0.00 | 0.00 | 41 | 1011.4 |
| 20260506235118 | 27 | 109 | 17.7 | 25.7 | 0.00 | 0.00 | 0.00 | 40 | 1011.4 |
| 20260506234520 | 28 | 107 | 17.7 | 25.7 | 0.00 | 0.00 | 0.00 | 35 | 1011.4 |
| 20260506233958 | 27 | 107 | 17.7 | 25.7 | 0.00 | 0.00 | 0.00 | 36 | 1011.4 |
| 20260506233458 | 27 | 111 | 19.3 | 27.4 | 0.00 | 0.00 | 0.00 | 37 | 1011.5 |
| 20260506232958 | 27 | 109 | 17.7 | 25.7 | 0.00 | 0.00 | 0.00 | 40 | 1011.6 |
| 20260506232524 | 27 | 109 | 17.7 | 25.7 | 0.00 | 0.00 | 0.00 | 40 | 1011.6 |
| 20260506232027 | 27 | 107 | 19.3 | 25.7 | 0.00 | 0.00 | 0.00 | 41 | 1011.6 |
| 20260506231519 | 27 | 109 | 17.7 | 25.7 | 0.00 | 0.00 | 0.00 | 40 | 1011.7 |
| 20260506231019 | 27 | 109 | 17.7 | 25.7 | 0.00 | 0.00 | 0.00 | 40 | 1011.7 |
| 20260506230500 | 27 | 109 | 17.7 | 25.7 | 0.00 | 0.00 | 0.00 | 44 | 1011.9 |
| 20260506225958 | 26 | 107 | 19.3 | 25.7 | 0.00 | 0.00 | 0.00 | 46 | 1012.0 |
| 20260506225514 | 26 | 107 | 19.3 | 25.7 | 0.00 | 0.00 | 0.00 | 46 | 1012.0 |
| 20260506225029 | 26 | 103 | 17.7 | 25.7 | 0.00 | 0.00 | 0.00 | 47 | 1012.0 |
| 20260506224458 | 26 | 104 | 17.7 | 25.7 | 0.00 | 0.00 | 0.00 | 44 | 1012.2 |
| 20260506223958 | 26 | 99 | 14.5 | 22.5 | 0.00 | 0.00 | 0.00 | 47 | 1012.3 |
| 20260506223459 | 26 | 98 | 16.1 | 24.1 | 0.00 | 0.00 | 0.00 | 48 | 1012.4 |
| 20260506223014 | 26 | 98 | 16.1 | 24.1 | 0.00 | 0.00 | 0.00 | 48 | 1012.4 |
| 20260506222613 | 26 | 100 | 17.7 | 24.1 | 0.00 | 0.00 | 0.00 | 49 | 1012.5 |
| 20260506222050 | 26 | 102 | 17.7 | 25.7 | 0.00 | 0.00 | 0.00 | 47 | 1012.6 |
| 20260506221501 | 26 | 104 | 19.3 | 27.4 | 0.00 | 0.00 | 0.00 | 46 | 1012.8 |
| 20260506221022 | 26 | 104 | 19.3 | 27.4 | 0.00 | 0.00 | 0.00 | 46 | 1012.8 |
| 20260506220504 | 25 | 105 | 20.9 | 27.4 | 0.00 | 0.00 | 0.00 | 47 | 1012.9 |
| 20260506220029 | 25 | 105 | 20.9 | 27.4 | 0.00 | 0.00 | 0.00 | 47 | 1012.9 |
| 20260506215555 | 25 | 105 | 20.9 | 27.4 | 0.00 | 0.00 | 0.00 | 47 | 1013.0 |
| 20260506215047 | 25 | 100 | 17.7 | 27.4 | 0.00 | 0.00 | 0.00 | 49 | 1013.0 |
| 20260506214500 | 25 | 104 | 19.3 | 25.7 | 0.00 | 0.00 | 0.00 | 50 | 1013.2 |
| 20260506214020 | 25 | 106 | 20.9 | 27.4 | 0.00 | 0.00 | 0.00 | 50 | 1013.3 |
| 20260506213502 | 25 | 107 | 22.5 | 29.0 | 0.00 | 0.00 | 0.00 | 49 | 1013.4 |
| 20260506212958 | 26 | 102 | 19.3 | 29.0 | 0.00 | 0.00 | 0.00 | 50 | 1013.4 |
| 20260506212554 | 26 | 102 | 19.3 | 29.0 | 0.00 | 0.00 | 0.00 | 50 | 1013.4 |
| 20260506212041 | 26 | 95 | 16.1 | 24.1 | 0.00 | 0.00 | 0.00 | 50 | 1013.5 |
| 20260506211500 | 26 | 98 | 17.7 | 22.5 | 0.00 | 0.00 | 0.00 | 43 | 1013.6 |
| 20260506211021 | 26 | 98 | 17.7 | 22.5 | 0.00 | 0.00 | 0.00 | 43 | 1013.6 |
| 20260506210521 | 25 | 94 | 16.1 | 22.5 | 0.00 | 0.00 | 0.00 | 43 | 1013.7 |
| 20260506210008 | 25 | 92 | 17.7 | 22.5 | 0.00 | 0.00 | 0.00 | 44 | 1013.8 |
| 20260506205553 | 25 | 92 | 17.7 | 22.5 | 0.00 | 0.00 | 0.00 | 44 | 1013.8 |
| 20260506205054 | 25 | 87 | 17.7 | 22.5 | 0.00 | 0.00 | 0.00 | 44 | 1013.8 |
| 20260506204458 | 25 | 84 | 17.7 | 22.5 | 0.00 | 0.00 | 0.00 | 43 | 1014.0 |
| 20260506204000 | 25 | 80 | 17.7 | 22.5 | 0.00 | 0.00 | 0.00 | 41 | 1014.1 |
| 20260506203529 | 25 | 80 | 17.7 | 22.5 | 0.00 | 0.00 | 0.00 | 41 | 1014.1 |
| 20260506203014 | 25 | 87 | 17.7 | 22.5 | 0.00 | 0.00 | 0.00 | 41 | 1014.1 |
| 20260506202629 | 25 | 92 | 17.7 | 22.5 | 0.00 | 0.00 | 0.00 | 41 | 1014.2 |
| 20260506202050 | 25 | 95 | 17.7 | 22.5 | 0.00 | 0.00 | 0.00 | 39 | 1014.2 |
| 20260506201504 | 25 | 84 | 16.1 | 20.9 | 0.00 | 0.00 | 0.00 | 40 | 1014.4 |
| 20260506201020 | 25 | 84 | 16.1 | 20.9 | 0.00 | 0.00 | 0.00 | 40 | 1014.4 |
| 20260506200517 | 25 | 82 | 16.1 | 19.3 | 0.00 | 0.00 | 0.00 | 39 | 1014.5 |
| 20260506200019 | 25 | 74 | 12.9 | 19.3 | 0.00 | 0.00 | 0.00 | 40 | 1014.6 |
| 20260506195552 | 25 | 75 | 14.5 | 17.7 | 0.00 | 0.00 | 0.00 | 38 | 1014.7 |
| 20260506195107 | 25 | 79 | 14.5 | 17.7 | 0.00 | 0.00 | 0.00 | 38 | 1014.7 |
| 20260506194459 | 25 | 81 | 12.9 | 17.7 | 0.00 | 0.00 | 0.00 | 39 | 1014.9 |
| 20260506194000 | 24 | 81 | 14.5 | 17.7 | 0.00 | 0.00 | 0.00 | 38 | 1015.0 |
| 20260506193501 | 24 | 81 | 12.9 | 16.1 | 0.00 | 0.00 | 0.00 | 39 | 1015.1 |
| 20260506193013 | 24 | 81 | 12.9 | 16.1 | 0.00 | 0.00 | 0.00 | 39 | 1015.1 |
| 20260506192612 | 24 | 79 | 12.9 | 17.7 | 0.00 | 0.00 | 0.00 | 39 | 1015.1 |
| 20260506192044 | 24 | 88 | 12.9 | 17.7 | 0.00 | 0.00 | 0.00 | 38 | 1015.2 |
| 20260506191458 | 23 | 78 | 12.9 | 17.7 | 0.00 | 0.00 | 0.00 | 39 | 1015.3 |
| 20260506191018 | 23 | 78 | 12.9 | 17.7 | 0.00 | 0.00 | 0.00 | 39 | 1015.3 |
| 20260506190538 | 23 | 83 | 12.9 | 17.7 | 0.00 | 0.00 | 0.00 | 38 | 1015.4 |
| 20260506190018 | 23 | 74 | 12.9 | 17.7 | 0.00 | 0.00 | 0.00 | 38 | 1015.5 |
| 20260506185556 | 23 | 77 | 12.9 | 17.7 | 0.00 | 0.00 | 0.00 | 37 | 1015.5 |
| 20260506185035 | 23 | 78 | 11.3 | 16.1 | 0.00 | 0.00 | 0.00 | 37 | 1015.5 |
| 20260506184522 | 23 | 73 | 11.3 | 14.5 | 0.00 | 0.00 | 0.00 | 36 | 1015.6 |
| 20260506184024 | 23 | 63 | 11.3 | 16.1 | 0.00 | 0.00 | 0.00 | 36 | 1015.7 |
| 20260506183522 | 23 | 71 | 11.3 | 12.9 | 0.00 | 0.00 | 0.00 | 36 | 1015.7 |
| 20260506183015 | 23 | 71 | 11.3 | 12.9 | 0.00 | 0.00 | 0.00 | 36 | 1015.7 |
| 20260506182605 | 23 | 73 | 9.7 | 14.5 | 0.00 | 0.00 | 0.00 | 38 | 1015.8 |
| 20260506182042 | 23 | 69 | 11.3 | 14.5 | 0.00 | 0.00 | 0.00 | 37 | 1015.8 |
| 20260506181500 | 23 | 66 | 11.3 | 12.9 | 0.00 | 0.00 | 0.00 | 37 | 1015.9 |
| 20260506181036 | 23 | 66 | 11.3 | 12.9 | 0.00 | 0.00 | 0.00 | 37 | 1015.9 |
| 20260506180540 | 23 | 64 | 9.7 | 14.5 | 0.00 | 0.00 | 0.00 | 38 | 1015.9 |
| 20260506180025 | 23 | 69 | 9.7 | 16.1 | 0.00 | 0.00 | 0.00 | 37 | 1015.9 |
| 20260506175554 | 22 | 66 | 9.7 | 12.9 | 0.00 | 0.00 | 0.00 | 37 | 1015.9 |
| 20260506175039 | 22 | 79 | 9.7 | 16.1 | 0.00 | 0.00 | 0.00 | 37 | 1016.0 |
| 20260506174521 | 22 | 68 | 8.0 | 12.9 | 0.00 | 0.00 | 0.00 | 38 | 1016.0 |
| 20260506174000 | 22 | 55 | 6.4 | 11.3 | 0.00 | 0.00 | 0.00 | 38 | 1016.0 |
| 20260506173504 | 22 | 61 | 6.4 | 9.7 | 0.00 | 0.00 | 0.00 | 38 | 1016.1 |
| 20260506173022 | 22 | 50 | 6.4 | 9.7 | 0.00 | 0.00 | 0.00 | 38 | 1016.2 |
| 20260506172556 | 22 | 50 | 6.4 | 9.7 | 0.00 | 0.00 | 0.00 | 38 | 1016.2 |
| 20260506172104 | 22 | 90 | 4.8 | 9.7 | 0.00 | 0.00 | 0.00 | 39 | 1016.2 |
| 20260506171500 | 22 | 41 | 6.4 | 8.0 | 0.00 | 0.00 | 0.00 | 40 | 1016.1 |
| 20260506171054 | 22 | 41 | 6.4 | 8.0 | 0.00 | 0.00 | 0.00 | 40 | 1016.1 |
| 20260506170651 | 22 | 42 | 4.8 | 9.7 | 0.00 | 0.00 | 0.00 | 40 | 1016.1 |
| 20260506170038 | 21 | 40 | 4.8 | 8.0 | 0.00 | 0.00 | 0.00 | 41 | 1016.2 |
| 20260506165615 | 21 | 42 | 4.8 | 9.7 | 0.00 | 0.00 | 0.00 | 42 | 1016.2 |
| 20260506165040 | 21 | 23 | 6.4 | 9.7 | 0.00 | 0.00 | 0.00 | 43 | 1016.2 |
| 20260506164501 | 21 | 12 | 8.0 | 12.9 | 0.00 | 0.00 | 0.00 | 46 | 1016.3 |
| 20260506164000 | 20 | 19 | 8.0 | 14.5 | 0.00 | 0.00 | 0.00 | 46 | 1016.2 |
| 20260506163502 | 20 | 25 | 8.0 | 11.3 | 0.00 | 0.00 | 0.00 | 48 | 1016.2 |
| 20260506163032 | 20 | 25 | 8.0 | 11.3 | 0.00 | 0.00 | 0.00 | 48 | 1016.2 |
| 20260506162604 | 20 | 26 | 9.7 | 12.9 | 0.00 | 0.00 | 0.00 | 48 | 1016.2 |
| 20260506162043 | 20 | 20 | 6.4 | 12.9 | 0.00 | 0.00 | 0.00 | 49 | 1016.2 |
| 20260506161503 | 20 | 16 | 11.3 | 14.5 | 0.00 | 0.00 | 0.00 | 49 | 1016.1 |
| 20260506161020 | 20 | 16 | 11.3 | 14.5 | 0.00 | 0.00 | 0.00 | 49 | 1016.1 |
| 20260506160500 | 20 | 7 | 9.7 | 12.9 | 0.00 | 0.00 | 0.00 | 48 | 1016.0 |
| 20260506155958 | 20 | 5 | 9.7 | 12.9 | 0.00 | 0.00 | 0.00 | 48 | 1016.0 |
| 20260506155528 | 20 | 354 | 9.7 | 12.9 | 0.00 | 0.00 | 0.00 | 48 | 1016.0 |
| 20260506155019 | 20 | 354 | 9.7 | 12.9 | 0.00 | 0.00 | 0.00 | 48 | 1016.0 |
| 20260506154500 | 19 | 3 | 11.3 | 14.5 | 0.00 | 0.00 | 0.00 | 49 | 1016.0 |
| 20260506154000 | 19 | 8 | 11.3 | 14.5 | 0.00 | 0.00 | 0.00 | 50 | 1016.0 |
| 20260506153521 | 19 | 11 | 12.9 | 17.7 | 0.00 | 0.00 | 0.00 | 50 | 1016.0 |
| 20260506152959 | 19 | 9 | 12.9 | 16.1 | 0.00 | 0.00 | 0.00 | 50 | 1016.0 |
| 20260506152517 | 19 | 9 | 12.9 | 16.1 | 0.00 | 0.00 | 0.00 | 50 | 1016.0 |
| 20260506152022 | 19 | 5 | 12.9 | 17.7 | 0.00 | 0.00 | 0.00 | 52 | 1016.0 |
| 20260506151459 | 18 | 1 | 9.7 | 14.5 | 0.00 | 0.00 | 0.00 | 52 | 1016.0 |
| 20260506151020 | 18 | 1 | 9.7 | 14.5 | 0.00 | 0.00 | 0.00 | 52 | 1016.0 |
| 20260506150507 | 18 | 358 | 9.7 | 11.3 | 0.00 | 0.00 | 0.00 | 51 | 1015.9 |
| 20260506150033 | 18 | 358 | 9.7 | 11.3 | 0.00 | 0.00 | 0.00 | 51 | 1015.9 |
| 20260506145610 | 18 | 360 | 8.0 | 11.3 | 0.00 | 0.00 | 0.00 | 51 | 1016.0 |
| 20260506145116 | 18 | 352 | 9.7 | 11.3 | 0.00 | 0.00 | 0.00 | 51 | 1016.0 |
| 20260506144459 | 18 | 343 | 8.0 | 11.3 | 0.00 | 0.00 | 0.00 | 51 | 1015.9 |
| 20260506143958 | 18 | 323 | 6.4 | 11.3 | 0.00 | 0.00 | 0.00 | 52 | 1015.8 |
| 20260506143608 | 18 | 323 | 6.4 | 11.3 | 0.00 | 0.00 | 0.00 | 52 | 1015.8 |
| 20260506143154 | 18 | 340 | 9.7 | 16.1 | 0.00 | 0.00 | 0.00 | 52 | 1015.8 |
| 20260506142815 | 18 | 341 | 9.7 | 16.1 | 0.00 | 0.00 | 0.00 | 52 | 1015.7 |
| 20260506142131 | 17 | 336 | 11.3 | 12.9 | 0.00 | 0.00 | 0.00 | 53 | 1015.7 |
| 20260506141518 | 17 | 332 | 9.7 | 12.9 | 0.00 | 0.00 | 0.00 | 53 | 1015.6 |
| 20260506141106 | 17 | 332 | 9.7 | 12.9 | 0.00 | 0.00 | 0.00 | 53 | 1015.6 |
| 20260506140719 | 17 | 333 | 9.7 | 12.9 | 0.00 | 0.00 | 0.00 | 53 | 1015.5 |
| 20260506140214 | 17 | 334 | 11.3 | 14.5 | 0.00 | 0.00 | 0.00 | 53 | 1015.5 |
| 20260506135753 | 17 | 333 | 9.7 | 12.9 | 0.00 | 0.00 | 0.00 | 54 | 1015.4 |
| 20260506135120 | 16 | 331 | 8.0 | 9.7 | 0.00 | 0.00 | 0.00 | 54 | 1015.3 |
| 20260506134458 | 16 | 329 | 8.0 | 9.7 | 0.00 | 0.00 | 0.00 | 53 | 1015.2 |
| 20260506134001 | 16 | 320 | 8.0 | 8.0 | 0.00 | 0.00 | 0.00 | 53 | 1015.2 |
| 20260506133459 | 16 | 298 | 6.4 | 8.0 | 0.00 | 0.00 | 0.00 | 52 | 1015.1 |
| 20260506132958 | 16 | 294 | 8.0 | 8.0 | 0.00 | 0.00 | 0.00 | 53 | 1015.0 |
| 20260506132617 | 16 | 294 | 8.0 | 8.0 | 0.00 | 0.00 | 0.00 | 53 | 1015.0 |
| 20260506132211 | 16 | 294 | 6.4 | 8.0 | 0.00 | 0.00 | 0.00 | 53 | 1014.9 |
| 20260506131458 | 16 | 307 | 4.8 | 8.0 | 0.00 | 0.00 | 0.00 | 54 | 1014.8 |
| 20260506131038 | 16 | 307 | 4.8 | 8.0 | 0.00 | 0.00 | 0.00 | 54 | 1014.8 |
| 20260506130531 | 16 | 293 | 4.8 | 6.4 | 0.00 | 0.00 | 0.00 | 54 | 1014.8 |
| 20260506130037 | 16 | 318 | 4.8 | 6.4 | 0.00 | 0.00 | 0.00 | 54 | 1014.6 |
| 20260506125631 | 16 | 321 | 4.8 | 6.4 | 0.00 | 0.00 | 0.00 | 54 | 1014.6 |
| 20260506125102 | 16 | 322 | 3.2 | 6.4 | 0.00 | 0.00 | 0.00 | 54 | 1014.5 |
| 20260506124522 | 16 | 320 | 3.2 | 4.8 | 0.00 | 0.00 | 0.00 | 54 | 1014.4 |
| 20260506124001 | 17 | 340 | 4.8 | 8.0 | 0.00 | 0.00 | 0.00 | 53 | 1014.4 |
| 20260506123501 | 17 | 338 | 4.8 | 6.4 | 0.00 | 0.00 | 0.00 | 53 | 1014.4 |
| 20260506123001 | 16 | 5 | 4.8 | 8.0 | 0.00 | 0.00 | 0.00 | 53 | 1014.4 |
| 20260506122609 | 16 | 5 | 4.8 | 8.0 | 0.00 | 0.00 | 0.00 | 53 | 1014.4 |
| 20260506122011 | 16 | 51 | 3.2 | 4.8 | 0.00 | 0.00 | 0.00 | 53 | 1014.4 |
| 20260506121500 | 17 | 292 | 3.2 | 4.8 | 0.00 | 0.00 | 0.00 | 53 | 1014.2 |
| 20260506121018 | 17 | 292 | 3.2 | 4.8 | 0.00 | 0.00 | 0.00 | 53 | 1014.2 |
| 20260506120509 | 16 | 289 | 4.8 | 4.8 | 0.00 | 0.00 | 0.00 | 53 | 1014.2 |
| 20260506120000 | 16 | 306 | 6.4 | 8.0 | 0.00 | 0.00 | 0.00 | 53 | 1014.2 |
| 20260506115555 | 16 | 306 | 6.4 | 8.0 | 0.00 | 0.00 | 0.00 | 53 | 1014.2 |
| 20260506115109 | 16 | 300 | 6.4 | 9.7 | 0.00 | 0.00 | 0.00 | 52 | 1014.2 |
| 20260506114500 | 17 | 313 | 9.7 | 12.9 | 0.00 | 0.00 | 0.00 | 52 | 1014.1 |
| 20260506113959 | 17 | 305 | 9.7 | 12.9 | 0.00 | 0.00 | 0.00 | 51 | 1014.1 |
| 20260506113459 | 17 | 301 | 8.0 | 11.3 | 0.00 | 0.00 | 0.00 | 51 | 1014.1 |
| 20260506113000 | 17 | 293 | 8.0 | 9.7 | 0.00 | 0.00 | 0.00 | 52 | 1014.1 |
| 20260506112522 | 17 | 293 | 8.0 | 9.7 | 0.00 | 0.00 | 0.00 | 52 | 1014.1 |
| 20260506112022 | 17 | 300 | 8.0 | 11.3 | 0.00 | 0.00 | 0.00 | 51 | 1014.0 |
| 20260506111501 | 17 | 310 | 11.3 | 14.5 | 0.00 | 0.00 | 0.00 | 51 | 1014.0 |
| 20260506111019 | 17 | 310 | 11.3 | 14.5 | 0.00 | 0.00 | 0.00 | 51 | 1014.0 |
| 20260506110522 | 17 | 321 | 9.7 | 12.9 | 0.00 | 0.00 | 0.00 | 52 | 1014.0 |
| 20260506110040 | 17 | 334 | 8.0 | 9.7 | 0.00 | 0.00 | 0.00 | 52 | 1014.0 |
| 20260506105638 | 17 | 330 | 6.4 | 9.7 | 0.00 | 0.00 | 0.00 | 52 | 1013.9 |
| 20260506105100 | 17 | 302 | 3.2 | 6.4 | 0.00 | 0.00 | 0.00 | 52 | 1013.8 |
| 20260506104522 | 17 | 297 | 4.8 | 6.4 | 0.00 | 0.00 | 0.00 | 52 | 1013.8 |
| 20260506104001 | 17 | 296 | 6.4 | 8.0 | 0.00 | 0.00 | 0.00 | 52 | 1013.8 |
| 20260506103502 | 17 | 306 | 8.0 | 11.3 | 0.00 | 0.00 | 0.00 | 52 | 1013.8 |
| 20260506103029 | 17 | 306 | 8.0 | 11.3 | 0.00 | 0.00 | 0.00 | 52 | 1013.8 |
| 20260506102641 | 17 | 320 | 8.0 | 12.9 | 0.00 | 0.00 | 0.00 | 51 | 1013.8 |
| 20260506102140 | 17 | 331 | 12.9 | 14.5 | 0.00 | 0.00 | 0.00 | 51 | 1013.8 |
| 20260506101527 | 17 | 334 | 14.5 | 17.7 | 0.00 | 0.00 | 0.00 | 51 | 1013.8 |
| 20260506101021 | 17 | 326 | 14.5 | 17.7 | 0.00 | 0.00 | 0.00 | 50 | 1013.8 |
| 20260506100517 | 17 | 318 | 14.5 | 17.7 | 0.00 | 0.00 | 0.00 | 51 | 1013.8 |
| 20260506100021 | 17 | 324 | 14.5 | 19.3 | 0.00 | 0.00 | 0.00 | 50 | 1013.8 |
| 20260506095639 | 17 | 331 | 14.5 | 16.1 | 0.00 | 0.00 | 0.00 | 50 | 1013.7 |
| 20260506095100 | 17 | 332 | 14.5 | 19.3 | 0.00 | 0.00 | 0.00 | 50 | 1013.7 |
| 20260506094500 | 17 | 323 | 12.9 | 17.7 | 0.00 | 0.00 | 0.00 | 49 | 1013.7 |
| 20260506094000 | 18 | 322 | 12.9 | 17.7 | 0.00 | 0.00 | 0.00 | 49 | 1013.7 |
| 20260506093500 | 18 | 321 | 12.9 | 17.7 | 0.00 | 0.00 | 0.00 | 49 | 1013.8 |
| 20260506092959 | 18 | 322 | 12.9 | 17.7 | 0.00 | 0.00 | 0.00 | 48 | 1013.8 |
| 20260506092526 | 18 | 322 | 12.9 | 17.7 | 0.00 | 0.00 | 0.00 | 48 | 1013.8 |
| 20260506092020 | 18 | 324 | 12.9 | 17.7 | 0.00 | 0.00 | 0.00 | 48 | 1013.8 |
| 20260506091500 | 18 | 320 | 12.9 | 17.7 | 0.00 | 0.00 | 0.00 | 47 | 1013.7 |
| 20260506091019 | 18 | 320 | 12.9 | 17.7 | 0.00 | 0.00 | 0.00 | 47 | 1013.7 |
| 20260506090511 | 18 | 317 | 12.9 | 20.9 | 0.00 | 0.00 | 0.00 | 47 | 1013.7 |
| 20260506085959 | 18 | 313 | 14.5 | 19.3 | 0.00 | 0.00 | 0.00 | 47 | 1013.7 |
| 20260506085600 | 18 | 313 | 14.5 | 19.3 | 0.00 | 0.00 | 0.00 | 47 | 1013.7 |
| 20260506085103 | 18 | 315 | 14.5 | 19.3 | 0.00 | 0.00 | 0.00 | 47 | 1013.8 |
| 20260506084500 | 18 | 316 | 14.5 | 17.7 | 0.00 | 0.00 | 0.00 | 47 | 1013.8 |